Flight Track Log - Related Links

Times and Time Zones

All times are in EST time to prevent confusion due to time zone crossing. See the RPA3498 flight status page for this flight to view local times or setup timezone preferences in your user account.

Time Position Orientation Groundspeed Altitude Reporting Facility
EST Latitude Longitude Course Direction KTS MPH feet Rate Location/Type
Tue 01:17:14 PM 32.1814 -81.2847 30° Northeast 254 292 3,100  Level Jacksonville Center
Tue 01:18:00 PM 32.4538 -80.9770 31° Northeast  Level Estimated
Tue 01:18:14 PM 32.2631 -81.2956 354° North 279 321 6,200  Level Jacksonville Center
Tue 01:19:00 PM 32.5326 -80.9155 33° Northeast  Level FlightAware Approximate
Tue 01:19:14 PM 32.3464 -81.2819 North 316 364 8,000  Level Jacksonville Center
Tue 01:20:00 PM 32.6115 -80.8539 33° Northeast  Level FlightAware Approximate
Tue 01:20:14 PM 32.4208 -81.2339 29° Northeast 308 354 9,400  Level Jacksonville Center
Tue 01:21:00 PM 32.6930 -80.7973 30° Northeast  Level Estimated
Tue 01:21:14 PM 32.4931 -81.1708 36° Northeast 330 380 11,200  Level Jacksonville Center
Tue 01:22:14 PM 32.5881 -81.0928 35° Northeast 364 419 13,500 1,400 Climbing Jacksonville Center
Tue 01:23:14 PM 32.6767 -81.0144 37° Northeast 386 444 14,000 800 Climbing Jacksonville Center
Tue 01:24:14 PM 32.7733 -80.9308 36° Northeast 407 468 15,100 1,350 Climbing Jacksonville Center
Tue 01:25:14 PM 32.8764 -80.8469 34° Northeast 422 486 16,700 1,450 Climbing Jacksonville Center
Tue 01:26:14 PM 32.9794 -80.7581 36° Northeast 442 509 18,000 1,350 Climbing Jacksonville Center
Tue 01:27:14 PM 33.0842 -80.6639 37° Northeast 454 522 19,400 1,400 Climbing Jacksonville Center
Tue 01:28:14 PM 33.1933 -80.5742 35° Northeast 460 529 20,800 1,300 Climbing Jacksonville Center
Tue 01:29:14 PM 33.3086 -80.4942 30° Northeast 472 543 22,000 1,200 Climbing Jacksonville Center
Tue 01:30:14 PM 33.4261 -80.4214 27° Northeast 472 543 23,200 1,100 Climbing Jacksonville Center
Tue 01:31:14 PM 33.5500 -80.3481 26° Northeast 477 549 24,200 1,000 Climbing Jacksonville Center
Tue 01:32:14 PM 33.6778 -80.2744 26° Northeast 488 562 25,200 900 Climbing Jacksonville Center
Tue 01:33:14 PM 33.8033 -80.1958 27° Northeast 498 573 26,000 750 Climbing Jacksonville Center
Tue 01:34:14 PM 33.9311 -80.1192 26° Northeast 503 579 26,700 800 Climbing Jacksonville Center
Tue 01:35:14 PM 34.0628 -80.0400 26° Northeast 508 585 27,600 925 Climbing Jacksonville Center
Tue 01:37:35 PM 34.3714 -79.8467 27° Northeast 540 621 29,800 802 Climbing Washington Center
Tue 01:38:36 PM 34.5100 -79.7631 26° Northeast 545 627 30,300 694 Climbing Washington Center
Tue 01:39:36 PM 34.6486 -79.6792 26° Northeast 550 633 31,200 843 Climbing Washington Center
Tue 01:40:37 PM 34.7869 -79.5953 26° Northeast 550 633 32,000 908 Climbing Washington Center
Tue 01:41:35 PM 34.9256 -79.5083 27° Northeast 550 633 33,000 504 Climbing Washington Center
Tue 01:42:36 PM 35.0619 -79.4236 27° Northeast 550 633 33,000  Level Washington Center
Tue 01:43:37 PM 35.1981 -79.3386 27° Northeast 550 633 33,000  Level Washington Center
Tue 01:44:35 PM 35.3236 -79.2631 26° Northeast 550 633 33,000  Level Washington Center
Tue 01:45:35 PM 35.4597 -79.1747 28° Northeast 550 633 33,000  Level Washington Center
Tue 01:46:36 PM 35.6108 -79.0794 27° Northeast 550 633 33,000  Level Washington Center
Tue 01:47:37 PM 35.7489 -78.9958 26° Northeast 550 633 33,000  Level Washington Center
Tue 01:48:35 PM 35.8700 -78.9139 29° Northeast 550 633 33,000  Level Washington Center
Tue 01:49:36 PM 36.0100 -78.8275 27° Northeast 550 633 33,000  Level Washington Center
Tue 01:50:37 PM 36.1481 -78.7378 28° Northeast 550 633 33,000  Level Washington Center
Tue 01:51:34 PM 36.2881 -78.6481 27° Northeast 550 633 33,000  Level Washington Center
Tue 01:52:36 PM 36.4281 -78.5556 28° Northeast 550 633 33,000  Level Washington Center
Tue 01:53:36 PM 36.5703 -78.4678 26° Northeast 555 639 33,000  Level Washington Center
Tue 01:54:37 PM 36.7081 -78.3719 29° Northeast 560 644 33,000  Level Washington Center
Tue 01:55:35 PM 36.8500 -78.2808 27° Northeast 560 644 33,000  Level Washington Center
Tue 01:56:35 PM 37.0086 -78.1747 28° Northeast 570 656 33,000  Level Washington Center
Tue 01:57:36 PM 37.1336 -78.0903 28° Northeast 570 656 33,000  Level Washington Center
Tue 01:58:36 PM 37.2753 -77.9983 27° Northeast 565 650 33,000  Level Washington Center
Tue 01:59:36 PM 37.4169 -77.9033 28° Northeast 565 650 33,000  Level Washington Center
Tue 02:00:35 PM 37.5564 -77.8028 30° Northeast 565 650 33,000  Level Washington Center
Tue 02:01:35 PM 37.6900 -77.6808 36° Northeast 576 663 33,000 -984 Level Washington Center
Tue 02:02:37 PM 37.8275 -77.5583 35° Northeast 588 677 31,000 -984 Descending Washington Center
Tue 02:03:37 PM 37.9631 -77.4328 36° Northeast 600 690 31,000  Level Washington Center
Tue 02:04:35 PM 38.1069 -77.3017 36° Northeast 600 690 31,000  Level Washington Center
Tue 02:05:36 PM 38.2400 -77.1806 36° Northeast 594 684 31,000 -49 Level Washington Center
Tue 02:06:38 PM 38.3728 -77.0561 36° Northeast 594 684 30,900 -1,400 Descending Washington Center
Tue 02:07:36 PM 38.5056 -76.9342 36° Northeast 594 684 28,200 -3,000 Descending Washington Center
Tue 02:08:36 PM 38.6342 -76.8117 37° Northeast 589 678 25,000 -2,118 Descending Washington Center
Tue 02:09:35 PM 38.7272 -76.6481 54° Northeast 557 641 24,000 -500 Descending Washington Center
Tue 02:10:36 PM 38.7622 -76.4650 76° East 571 657 24,000 -1,869 Level Washington Center
Tue 02:11:37 PM 38.8072 -76.2522 75° East 571 657 20,200 -4,185 Descending Washington Center
Tue 02:12:35 PM 38.8478 -76.0686 74° East 548 631 15,700 -2,644 Descending Washington Center
Tue 02:13:35 PM 38.8836 -75.9011 75° East 510 587 15,000 -545 Descending Washington Center
Tue 02:14:36 PM 38.9589 -75.7786 52° Northeast 462 532 14,600 -1,589 Descending Washington Center
Tue 02:16:40 PM 39.1833 -75.6667 21° North 362 417 10,100 -1,533 Descending Philadelphia TRACON
Tue 02:17:40 PM 39.2833 -75.6500 North 307 353 9,900 -550 Descending Philadelphia TRACON
Tue 02:18:40 PM 39.3500 -75.5833 38° Northeast 334 384 9,000 -900 Descending Philadelphia TRACON
Tue 02:19:40 PM 39.4000 -75.5000 52° Northeast 331 381 8,100 -952 Descending Philadelphia TRACON
Tue 02:20:46 PM 39.4500 -75.3833 61° Northeast 309 356 7,000 -1,000 Descending Philadelphia TRACON
Tue 02:21:46 PM 39.4833 -75.2833 67° East 291 335 6,000 -550 Descending Philadelphia TRACON
Tue 02:22:46 PM 39.5333 -75.2167 46° Northeast 289 333 5,900  Descending Philadelphia TRACON
Tue 02:23:46 PM 39.6000 -75.1500 38° Northeast 289 333 6,000 52 Climbing Philadelphia TRACON
Tue 02:24:41 PM 39.6500 -75.0833 46° Northeast 287 330 6,000 -47 Level Philadelphia TRACON
Tue 02:25:53 PM 39.7333 -75.0833 360° North 216 249 5,900 -48 Descending Philadelphia TRACON
Tue 02:26:47 PM 39.7833 -75.0833 360° North 186 214 5,900  Level Philadelphia TRACON
Tue 02:27:47 PM 39.7833 -75.0167 90° East 236 272 5,900  Level Philadelphia TRACON
Tue 02:28:47 PM 39.8000 -74.9333 75° East 225 259 5,900 50 Level Philadelphia TRACON
Tue 02:29:47 PM 39.8000 -74.8500 90° East 228 262 6,000  Climbing Philadelphia TRACON
Tue 02:30:47 PM 39.8333 -74.8000 49° Northeast 204 235 5,900 -556 Descending Philadelphia TRACON
Tue 02:31:35 PM 39.8500 -74.8167 322° Northwest 153 176 5,000 -1,211 Descending Philadelphia TRACON
Tue 02:32:41 PM 39.9000 -74.8500 333° Northwest 157 181 3,600 -952 Descending Philadelphia TRACON
Tue 02:33:41 PM 39.9167 -74.9000 294° West 166 191 3,000 -316 Descending Philadelphia TRACON
Tue 02:34:35 PM 39.9167 -74.9667 270° West 170 196 3,000 -56 Level Philadelphia TRACON
Tue 02:35:29 PM 39.9167 -75.0167 270° West 177 204 2,900 -300 Descending Philadelphia TRACON
Tue 02:36:35 PM 39.9000 -75.0833 252° West 157 181 2,400 -667 Descending Philadelphia TRACON
Tue 02:37:35 PM 39.9000 -75.1333 270° West 152 175 1,500 -850 Descending Philadelphia TRACON
Tue 02:38:35 PM 39.8833 -75.1833 247° West 127 146 700 -800 Descending Philadelphia TRACON

Login

Don't have an account? Register now (free) for customized features, flight alerts, and more!